Amherst Junction, Wisconsin
Current Conditions -  °F | °C
As of 6:15 AM on Friday 24 Oct 2014 (Local Time) from KSTE Reporting Station
Moderate Fog Moderate Fog  
Wind Chill:   Ceiling: 200
Heat Index:   Visibility: 0.5mi
Dew Point:   Wind: 5mph
Humidity: 100%   Direction: 230°SW
Pressure: 30.02"   Gusts: NA
Location:  44.47°N, 89.31°W
Report Text: KSTE 241115Z AUTO 23004KT 1/2SM FG OVC002 07/07 A3002 RMK AO2 T00660066
Loading
Personal Weather Stations






























Interactive Weather Map
Tropical Storm Tracking
New forecast layout! Learn more

10-Day Weather Forecast

Advertisements
Track Severe Weather on mobile